createdAt,value
2023-05-17T07:41:28.471Z,12.61
2023-05-17T07:43:55.671Z,13.10
2023-05-17T07:46:22.374Z,12.72
2023-05-17T07:48:49.277Z,13.71
2023-05-17T07:51:16.626Z,14.12
2023-05-17T07:53:43.484Z,15.39
2023-05-17T07:56:10.334Z,15.78
2023-05-17T07:58:36.975Z,14.21
2023-05-17T08:01:03.710Z,13.58
2023-05-17T08:03:30.374Z,13.53
2023-05-17T08:05:57.075Z,14.08
2023-05-17T08:08:23.808Z,13.61
2023-05-17T08:10:52.940Z,14.71
2023-05-17T08:13:19.664Z,14.47
2023-05-17T08:15:47.995Z,13.85
2023-05-17T08:18:17.090Z,13.79
2023-05-17T08:20:43.858Z,14.22
2023-05-17T08:23:10.516Z,15.52
2023-05-17T08:25:37.275Z,15.11
2023-05-17T08:28:03.972Z,14.93
2023-05-17T08:30:30.904Z,14.00
2023-05-17T08:32:57.654Z,14.21
2023-05-17T08:35:29.066Z,15.35
2023-05-17T08:37:55.935Z,15.49
2023-05-17T08:40:22.745Z,15.32
2023-05-17T08:42:52.686Z,15.80
2023-05-17T08:45:19.452Z,14.33
2023-05-17T08:47:46.344Z,14.08
2023-05-17T08:50:13.299Z,14.79
2023-05-17T08:52:41.421Z,16.08
2023-05-17T08:55:10.903Z,15.66
2023-05-17T08:57:38.933Z,15.48
2023-05-17T09:00:06.757Z,15.28
2023-05-17T09:02:33.771Z,15.54
2023-05-17T09:05:00.597Z,15.69
2023-05-17T09:07:27.430Z,15.71
2023-05-17T09:09:54.420Z,14.61
2023-05-17T09:12:22.904Z,13.91
2023-05-17T09:14:51.069Z,14.19
2023-05-17T09:17:21.550Z,14.77
2023-05-17T09:19:48.933Z,14.55
2023-05-17T09:22:19.209Z,14.99
2023-05-17T09:24:49.572Z,14.51
2023-05-17T09:27:18.011Z,13.91
2023-05-17T09:29:45.515Z,13.15
2023-05-17T09:32:17.477Z,12.89
2023-05-17T09:34:46.210Z,12.44
2023-05-17T09:37:14.687Z,12.43
2023-05-17T09:39:42.030Z,13.09
2023-05-17T09:42:08.707Z,13.09
2023-05-17T09:44:51.812Z,13.75
2023-05-17T09:47:36.836Z,13.65
2023-05-17T09:50:03.634Z,13.89
2023-05-17T09:52:30.396Z,13.36
2023-05-17T09:55:00.697Z,13.90
2023-05-17T09:57:29.201Z,14.95
2023-05-17T09:59:56.642Z,14.88
2023-05-17T10:02:31.993Z,14.20
2023-05-17T10:05:02.016Z,13.81
2023-05-17T10:07:28.691Z,13.40
2023-05-17T10:10:06.866Z,13.96
2023-05-17T10:12:34.038Z,13.72
2023-05-17T10:15:01.812Z,13.04
2023-05-17T10:17:28.688Z,13.41
2023-05-17T10:19:56.437Z,13.29
2023-05-17T10:22:24.125Z,13.79
2023-05-17T10:24:51.505Z,13.57
2023-05-17T10:27:18.330Z,13.75
2023-05-17T10:29:54.431Z,13.87
2023-05-17T10:32:21.810Z,13.98
2023-05-17T10:35:01.500Z,14.26
2023-05-17T10:37:33.573Z,14.47
2023-05-17T10:40:00.271Z,14.56
2023-05-17T10:42:33.100Z,15.37
2023-05-17T10:45:01.230Z,14.31
2023-05-17T10:47:43.094Z,14.61
2023-05-17T10:50:13.286Z,14.66
2023-05-17T10:52:45.085Z,15.39
2023-05-17T10:55:11.766Z,15.73
2023-05-17T10:57:50.549Z,16.28
2023-05-17T11:00:21.605Z,15.37
2023-05-17T11:02:48.657Z,15.70
2023-05-17T11:05:25.833Z,14.57
2023-05-17T11:07:52.884Z,13.89
2023-05-17T11:10:19.558Z,13.28
2023-05-17T11:12:47.622Z,13.34
2023-05-17T11:15:17.606Z,13.20
2023-05-17T11:17:46.038Z,13.09
2023-05-17T11:20:17.140Z,13.12
2023-05-17T11:23:00.288Z,13.44
2023-05-17T11:25:37.957Z,13.82
2023-05-17T11:28:09.050Z,13.41
2023-05-17T11:30:41.069Z,13.29
2023-05-17T11:33:25.295Z,13.41
2023-05-17T11:35:56.489Z,13.66
2023-05-17T11:38:27.906Z,13.59
2023-05-17T11:40:55.437Z,13.42
2023-05-17T11:43:23.848Z,13.67
2023-05-17T11:45:53.640Z,13.97
2023-05-17T11:48:24.278Z,13.85
2023-05-17T11:50:52.799Z,13.95
2023-05-17T11:53:27.566Z,14.31
2023-05-17T11:55:57.781Z,13.43
2023-05-17T11:58:27.000Z,12.66
2023-05-17T12:00:57.785Z,13.21
2023-05-17T12:03:26.524Z,13.97
2023-05-17T12:06:08.231Z,14.01
2023-05-17T12:08:36.833Z,13.78
2023-05-17T12:11:36.820Z,14.12
2023-05-17T12:14:03.529Z,13.32
2023-05-17T12:16:30.479Z,13.59
2023-05-17T12:18:57.255Z,13.38
2023-05-17T12:21:24.153Z,13.27
2023-05-17T12:23:53.953Z,13.40
2023-05-17T12:27:04.419Z,13.45
2023-05-17T12:29:34.129Z,12.90
2023-05-17T12:32:02.365Z,13.41
2023-05-17T12:34:29.993Z,13.31
2023-05-17T12:36:57.783Z,13.53
2023-05-17T12:39:25.473Z,13.92
2023-05-17T12:41:52.844Z,13.91
2023-05-17T12:44:20.034Z,13.82
2023-05-17T12:46:49.883Z,13.55
2023-05-17T12:49:19.117Z,13.53
2023-05-17T12:51:46.311Z,13.84
2023-05-17T12:54:27.713Z,13.67
2023-05-17T12:56:54.992Z,14.08
2023-05-17T12:59:21.958Z,14.07
2023-05-17T13:01:53.120Z,14.00
2023-05-17T13:04:22.524Z,14.20
2023-05-17T13:06:51.524Z,13.87
2023-05-17T13:09:25.057Z,13.75
2023-05-17T13:11:56.630Z,13.99
2023-05-17T13:17:37.725Z,14.34
2023-05-17T13:20:06.668Z,14.39
2023-05-17T13:22:35.712Z,14.07
2023-05-17T13:25:03.534Z,14.11
2023-05-17T13:27:30.425Z,13.80
2023-05-17T13:29:57.070Z,14.15
2023-05-17T13:32:24.057Z,14.11
2023-05-17T13:34:50.906Z,13.79
2023-05-17T13:37:17.596Z,13.93
2023-05-17T13:39:44.250Z,13.50
2023-05-17T13:42:12.295Z,13.60
2023-05-17T13:44:39.495Z,14.00
2023-05-17T13:47:06.423Z,13.71
2023-05-17T13:49:33.081Z,13.74
2023-05-17T13:51:59.735Z,13.90
2023-05-17T13:54:26.377Z,13.97
2023-05-17T13:56:53.078Z,14.33
2023-05-17T13:59:19.822Z,14.03
2023-05-17T14:01:46.825Z,14.28
2023-05-17T14:04:13.648Z,14.13
2023-05-17T14:06:42.043Z,14.20
2023-05-17T14:09:08.842Z,14.22
2023-05-17T14:11:35.495Z,13.85
2023-05-17T14:14:02.204Z,14.06
2023-05-17T14:16:28.891Z,13.87
2023-05-17T14:18:57.925Z,13.46
2023-05-17T14:21:24.675Z,13.68
2023-05-17T14:23:51.341Z,13.68
2023-05-17T14:26:17.981Z,14.07
2023-05-17T14:28:44.605Z,14.29
2023-05-17T14:31:11.264Z,14.51
2023-05-17T14:33:38.037Z,13.93
2023-05-17T14:36:04.943Z,13.97
2023-05-17T14:38:31.762Z,14.09
2023-05-17T14:40:59.056Z,13.77
2023-05-17T14:43:25.780Z,13.98
2023-05-17T14:45:52.441Z,14.12
2023-05-17T14:48:19.244Z,14.62
2023-05-17T14:50:45.961Z,13.93
2023-05-17T14:53:12.652Z,13.77
2023-05-17T14:55:39.326Z,13.53
2023-05-17T14:58:05.979Z,13.75
2023-05-17T15:00:32.643Z,13.73
2023-05-17T15:02:59.334Z,14.22
2023-05-17T15:05:26.127Z,14.02
2023-05-17T15:07:52.832Z,13.64
2023-05-17T15:10:19.655Z,13.35
2023-05-17T15:12:46.372Z,13.72
2023-05-17T15:15:13.081Z,14.04
2023-05-17T15:17:39.809Z,13.66
2023-05-17T15:20:07.467Z,13.91
2023-05-17T15:22:34.210Z,13.97
2023-05-17T15:25:00.898Z,14.29
2023-05-17T15:27:27.532Z,14.06
2023-05-17T15:29:54.206Z,13.93
2023-05-17T15:32:22.275Z,14.39
2023-05-17T15:34:48.921Z,14.42
2023-05-17T15:37:15.700Z,13.97
2023-05-17T15:39:42.665Z,13.74
2023-05-17T15:42:09.423Z,13.29
2023-05-17T15:44:36.122Z,13.21
2023-05-17T15:47:03.468Z,13.74
2023-05-17T15:49:30.473Z,13.96
2023-05-17T15:51:57.218Z,13.95
2023-05-17T15:54:23.969Z,13.86
2023-05-17T15:56:50.841Z,13.76
2023-05-17T15:59:17.530Z,13.84
2023-05-17T16:01:46.861Z,14.31
2023-05-17T16:04:16.380Z,14.39
2023-05-17T16:06:43.160Z,14.43
2023-05-17T16:09:09.898Z,14.31
2023-05-17T16:11:36.625Z,14.04
2023-05-17T16:14:03.267Z,14.09
2023-05-17T16:16:29.898Z,13.73
2023-05-17T16:18:56.659Z,13.28
2023-05-17T16:21:23.368Z,13.28
2023-05-17T16:23:50.028Z,13.68
2023-05-17T16:26:16.655Z,14.17
2023-05-17T16:28:43.396Z,13.44
2023-05-17T16:31:10.185Z,13.45
2023-05-17T16:33:36.960Z,13.42
2023-05-17T16:36:07.231Z,13.09
2023-05-17T16:38:34.744Z,12.91
2023-05-17T16:41:01.433Z,12.91
2023-05-17T16:43:28.083Z,13.03
2023-05-17T16:45:54.937Z,12.62
2023-05-17T16:48:24.655Z,12.55
2023-05-17T16:50:51.603Z,12.99
2023-05-17T16:53:18.379Z,12.80
2023-05-17T16:55:45.040Z,12.73
2023-05-17T16:58:11.689Z,12.88
2023-05-17T17:00:38.629Z,12.84
2023-05-17T17:03:08.236Z,13.35
2023-05-17T17:05:36.025Z,12.69
2023-05-17T17:08:04.929Z,12.64
2023-05-17T17:10:31.747Z,12.94
2023-05-17T17:12:58.550Z,12.72
2023-05-17T17:15:25.380Z,12.52
2023-05-17T17:17:52.147Z,12.93
2023-05-17T17:20:18.850Z,12.57
2023-05-17T17:22:45.539Z,12.61
2023-05-17T17:25:12.243Z,12.55
2023-05-17T17:27:38.909Z,12.94
2023-05-17T17:30:06.625Z,12.98
2023-05-17T17:32:33.499Z,13.18
2023-05-17T17:35:05.432Z,13.49
2023-05-17T17:37:32.076Z,13.12
2023-05-17T17:39:58.723Z,13.13
2023-05-17T17:42:25.558Z,13.15
2023-05-17T17:44:52.243Z,13.19
2023-05-17T17:47:18.967Z,13.19
2023-05-17T17:49:45.626Z,13.00
2023-05-17T17:52:12.310Z,13.43
2023-05-17T17:54:39.022Z,13.37
2023-05-17T17:57:05.743Z,12.55
2023-05-17T17:59:35.184Z,12.87
2023-05-17T18:02:02.037Z,13.29
2023-05-17T18:04:28.690Z,13.16
2023-05-17T18:06:55.635Z,12.79
2023-05-17T18:09:23.096Z,12.62
2023-05-17T18:11:49.838Z,12.63
2023-05-17T18:14:16.475Z,12.56
2023-05-17T18:16:43.179Z,12.20
2023-05-17T18:19:09.888Z,12.25
2023-05-17T18:21:36.631Z,12.20
2023-05-17T18:24:03.286Z,12.19
2023-05-17T18:26:29.942Z,12.29
2023-05-17T18:28:56.623Z,12.53
2023-05-17T18:31:23.303Z,12.54
2023-05-17T18:33:49.975Z,12.38
2023-05-17T18:36:16.644Z,12.28
2023-05-17T18:38:43.853Z,12.10
2023-05-17T18:41:13.393Z,11.85
2023-05-17T18:43:42.401Z,11.88
2023-05-17T18:46:09.054Z,11.68
2023-05-17T18:48:35.678Z,11.70
2023-05-17T18:51:02.888Z,11.75
2023-05-17T18:53:29.545Z,11.93
2023-05-17T18:55:56.264Z,11.62
2023-05-17T18:58:22.920Z,11.32
2023-05-17T19:00:49.576Z,11.40
2023-05-17T19:03:16.233Z,11.34
2023-05-17T19:05:42.923Z,11.34
2023-05-17T19:08:09.598Z,11.27
2023-05-17T19:10:36.330Z,11.21
2023-05-17T19:13:03.119Z,11.59
2023-05-17T19:15:29.848Z,11.54
2023-05-17T19:17:59.579Z,11.86
2023-05-17T19:20:26.292Z,11.84
2023-05-17T19:22:52.960Z,11.46
2023-05-17T19:25:21.141Z,11.29
2023-05-17T19:27:47.995Z,11.38
2023-05-17T19:30:14.691Z,11.28
2023-05-17T19:32:41.388Z,11.58
2023-05-17T19:35:08.511Z,11.73
2023-05-17T19:37:35.271Z,11.76
2023-05-17T19:40:02.572Z,11.85
2023-05-17T19:42:29.217Z,11.94
2023-05-17T19:44:56.116Z,12.02
2023-05-17T19:47:22.976Z,12.10
2023-05-17T19:49:49.712Z,12.22
2023-05-17T19:52:16.406Z,12.44
2023-05-17T19:54:43.127Z,11.88
2023-05-17T19:57:09.799Z,11.55
2023-05-17T19:59:39.335Z,11.38
2023-05-17T20:02:06.582Z,11.70
2023-05-17T20:04:33.322Z,11.95
2023-05-17T20:06:59.962Z,11.91
2023-05-17T20:09:26.992Z,11.82
2023-05-17T20:11:53.728Z,11.91
2023-05-17T20:14:20.383Z,11.63
2023-05-17T20:16:47.071Z,11.46
2023-05-17T20:19:13.892Z,11.54
2023-05-17T20:21:40.558Z,11.25
2023-05-17T20:24:07.645Z,11.10
2023-05-17T20:26:34.326Z,11.12
2023-05-17T20:29:00.959Z,11.21
2023-05-17T20:31:27.642Z,11.49
2023-05-17T20:33:54.289Z,11.41
2023-05-17T20:36:21.019Z,11.06
2023-05-17T20:38:47.672Z,11.22
2023-05-17T20:41:14.323Z,11.32
2023-05-17T20:43:42.661Z,11.12
2023-05-17T20:46:11.058Z,11.02
2023-05-17T20:48:37.811Z,10.97
2023-05-17T20:51:04.481Z,10.86
2023-05-17T20:53:31.408Z,10.86
2023-05-17T20:55:58.718Z,10.59
2023-05-17T20:58:25.374Z,10.68
2023-05-17T21:00:52.027Z,10.72
2023-05-17T21:03:18.786Z,10.66
2023-05-17T21:05:45.472Z,10.71
2023-05-17T21:08:14.695Z,10.57
2023-05-17T21:10:41.418Z,10.50
2023-05-17T21:13:08.564Z,10.52
2023-05-17T21:15:36.179Z,10.59
2023-05-17T21:18:03.140Z,10.46
2023-05-17T21:20:30.999Z,10.40
2023-05-17T21:22:57.630Z,10.43
2023-05-17T21:25:24.417Z,10.37
2023-05-17T21:27:51.085Z,10.37
2023-05-17T21:30:17.778Z,10.31
2023-05-17T21:32:45.534Z,10.30
2023-05-17T21:35:12.220Z,10.28
2023-05-17T21:37:38.858Z,10.26
2023-05-17T21:40:07.105Z,10.20
2023-05-17T21:42:34.152Z,10.21
2023-05-17T21:45:00.992Z,10.19
2023-05-17T21:47:27.786Z,10.27
2023-05-17T21:49:54.452Z,10.42
2023-05-17T21:52:21.191Z,10.26
2023-05-17T21:54:47.986Z,10.35
2023-05-17T21:57:14.646Z,10.24
2023-05-17T21:59:41.312Z,10.17
2023-05-17T22:02:07.991Z,10.17
2023-05-17T22:04:34.630Z,10.08
2023-05-17T22:07:01.261Z,10.04
2023-05-17T22:09:27.943Z,10.15
2023-05-17T22:11:54.563Z,10.05
2023-05-17T22:14:21.278Z,10.02
2023-05-17T22:16:47.920Z,9.93
2023-05-17T22:19:14.734Z,9.89
2023-05-17T22:21:41.370Z,9.91
2023-05-17T22:24:08.216Z,9.87
2023-05-17T22:26:34.863Z,9.80
2023-05-17T22:29:01.647Z,9.73
2023-05-17T22:31:28.389Z,9.84
2023-05-17T22:33:55.037Z,9.82
2023-05-17T22:36:21.668Z,9.67
2023-05-17T22:38:48.305Z,9.62
2023-05-17T22:41:14.934Z,9.58
2023-05-17T22:43:41.623Z,9.67
2023-05-17T22:46:08.295Z,9.64
2023-05-17T22:48:34.931Z,9.57
2023-05-17T22:51:01.860Z,9.66
2023-05-17T22:53:29.259Z,9.62
2023-05-17T22:55:56.115Z,9.52
2023-05-17T22:58:22.959Z,9.60
2023-05-17T23:00:49.965Z,9.47
2023-05-17T23:03:18.318Z,9.39
2023-05-17T23:05:45.399Z,9.39
2023-05-17T23:08:12.552Z,9.38
2023-05-17T23:10:39.308Z,9.30
2023-05-17T23:13:05.948Z,9.26
2023-05-17T23:15:32.651Z,9.26
2023-05-17T23:17:59.496Z,9.27
2023-05-17T23:20:26.746Z,9.16
2023-05-17T23:22:53.537Z,9.18
2023-05-17T23:25:20.152Z,9.19
2023-05-17T23:27:47.192Z,9.08
2023-05-17T23:30:14.384Z,9.10
2023-05-17T23:32:44.442Z,9.14
2023-05-17T23:35:11.094Z,9.20
2023-05-17T23:37:37.761Z,9.18
2023-05-17T23:40:05.169Z,9.07
2023-05-17T23:42:31.843Z,9.10
2023-05-17T23:44:59.176Z,9.10
2023-05-17T23:47:25.928Z,9.01
2023-05-17T23:49:52.573Z,9.02
2023-05-17T23:52:19.227Z,9.08
2023-05-17T23:54:46.537Z,9.10
2023-05-17T23:57:13.671Z,9.04
2023-05-17T23:59:40.778Z,8.99
